Terminal Aerodrome Forecast
Issued by NWS Jackson, MS

Home | Current Version | Previous Version | Text Only | Print | Product List | Glossary On
Versions: 1 2 3 4 5 6 7 8 9 10 11 12 13 14 15 16 17 18
000
FTUS44 KJAN 020500 RRA
TAFJAN
TAF
KJAN 020541Z 0206/0306 17009KT P6SM BKN015 BKN035
     FM021030 16005KT 4SM BR OVC007
     FM021530 17008KT P6SM VCTS BKN050CB=

USA.gov is the U.S. government's official web portal to all federal, state and local government web resources and services.